sensor_id;sensor_type;location;lat;lon;timestamp;pressure;altitude;pressure_sealevel;temperature;humidity
41264;BME280;26998;48.714;9.414;2022-12-13T00:01:10;98465.09;;;-7.19;100.00
41264;BME280;26998;48.714;9.414;2022-12-13T00:03:37;98462.41;;;-7.32;100.00
41264;BME280;26998;48.714;9.414;2022-12-13T00:06:08;98454.81;;;-7.35;100.00
41264;BME280;26998;48.714;9.414;2022-12-13T00:08:36;98463.53;;;-7.36;100.00
41264;BME280;26998;48.714;9.414;2022-12-13T00:11:05;98468.94;;;-7.39;100.00
41264;BME280;26998;48.714;9.414;2022-12-13T00:13:32;98469.88;;;-7.40;100.00
41264;BME280;26998;48.714;9.414;2022-12-13T00:16:01;98470.44;;;-7.50;100.00
41264;BME280;26998;48.714;9.414;2022-12-13T00:18:28;98464.03;;;-7.44;100.00
41264;BME280;26998;48.714;9.414;2022-12-13T00:20:56;98468.28;;;-7.43;100.00
41264;BME280;26998;48.714;9.414;2022-12-13T00:23:23;98462.53;;;-7.48;100.00
41264;BME280;26998;48.714;9.414;2022-12-13T00:25:49;98465.44;;;-7.53;100.00
41264;BME280;26998;48.714;9.414;2022-12-13T00:28:16;98475.81;;;-7.53;100.00
41264;BME280;26998;48.714;9.414;2022-12-13T00:30:42;98465.06;;;-7.47;100.00
41264;BME280;26998;48.714;9.414;2022-12-13T00:33:09;98467.66;;;-7.47;100.00
41264;BME280;26998;48.714;9.414;2022-12-13T00:35:39;98462.72;;;-7.51;100.00
41264;BME280;26998;48.714;9.414;2022-12-13T00:38:07;98467.66;;;-7.47;100.00
41264;BME280;26998;48.714;9.414;2022-12-13T00:40:34;98470.44;;;-7.50;100.00
41264;BME280;26998;48.714;9.414;2022-12-13T00:43:03;98472.09;;;-7.49;100.00
41264;BME280;26998;48.714;9.414;2022-12-13T00:45:29;98473.03;;;-7.50;100.00
41264;BME280;26998;48.714;9.414;2022-12-13T00:47:55;98476.75;;;-7.54;100.00
41264;BME280;26998;48.714;9.414;2022-12-13T00:50:22;98470.63;;;-7.53;100.00
41264;BME280;26998;48.714;9.414;2022-12-13T00:52:48;98464.69;;;-7.55;100.00
41264;BME280;26998;48.714;9.414;2022-12-13T00:55:15;98458.28;;;-7.49;100.00
41264;BME280;26998;48.714;9.414;2022-12-13T00:57:42;98459.41;;;-7.53;100.00
41264;BME280;26998;48.714;9.414;2022-12-13T01:00:09;98453.38;;;-7.54;100.00
41264;BME280;26998;48.714;9.414;2022-12-13T01:02:35;98445.31;;;-7.49;100.00
41264;BME280;26998;48.714;9.414;2022-12-13T01:05:02;98443.53;;;-7.49;100.00
41264;BME280;26998;48.714;9.414;2022-12-13T01:07:29;98449.75;;;-7.51;100.00
41264;BME280;26998;48.714;9.414;2022-12-13T01:09:57;98443.66;;;-7.50;100.00
41264;BME280;26998;48.714;9.414;2022-12-13T01:12:23;98438.00;;;-7.57;100.00
41264;BME280;26998;48.714;9.414;2022-12-13T01:14:50;98448.66;;;-7.61;100.00
41264;BME280;26998;48.714;9.414;2022-12-13T01:17:21;98439.28;;;-7.64;100.00
41264;BME280;26998;48.714;9.414;2022-12-13T01:19:47;98439.59;;;-7.69;100.00
41264;BME280;26998;48.714;9.414;2022-12-13T01:22:14;98438.75;;;-7.69;100.00
41264;BME280;26998;48.714;9.414;2022-12-13T01:24:40;98439.47;;;-7.67;100.00
41264;BME280;26998;48.714;9.414;2022-12-13T01:27:07;98441.25;;;-7.68;100.00
41264;BME280;26998;48.714;9.414;2022-12-13T01:29:34;98450.97;;;-7.57;100.00
41264;BME280;26998;48.714;9.414;2022-12-13T01:32:00;98447.25;;;-7.67;100.00
41264;BME280;26998;48.714;9.414;2022-12-13T01:34:27;98439.78;;;-7.72;100.00
41264;BME280;26998;48.714;9.414;2022-12-13T01:36:54;98439.59;;;-7.69;100.00
41264;BME280;26998;48.714;9.414;2022-12-13T01:39:24;98437.06;;;-7.70;100.00
41264;BME280;26998;48.714;9.414;2022-12-13T01:41:53;98437.81;;;-7.68;100.00
41264;BME280;26998;48.714;9.414;2022-12-13T01:47:23;98432.91;;;-7.73;100.00
41264;BME280;26998;48.714;9.414;2022-12-13T01:49:51;98428.75;;;-7.75;100.00
41264;BME280;26998;48.714;9.414;2022-12-13T01:52:20;98428.66;;;-7.74;100.00
41264;BME280;26998;48.714;9.414;2022-12-13T01:54:49;98424.66;;;-7.79;100.00
41264;BME280;26998;48.714;9.414;2022-12-13T01:57:17;98424.47;;;-7.76;100.00
41264;BME280;26998;48.714;9.414;2022-12-13T01:59:46;98418.28;;;-7.74;100.00
41264;BME280;26998;48.714;9.414;2022-12-13T02:02:14;98415.69;;;-7.74;100.00
41264;BME280;26998;48.714;9.414;2022-12-13T02:04:51;98415.97;;;-7.78;100.00
41264;BME280;26998;48.714;9.414;2022-12-13T02:07:23;98405.47;;;-7.77;100.00
41264;BME280;26998;48.714;9.414;2022-12-13T02:09:51;98410.47;;;-7.74;100.00
41264;BME280;26998;48.714;9.414;2022-12-13T02:12:25;98400.09;;;-7.74;100.00
41264;BME280;26998;48.714;9.414;2022-12-13T02:14:59;98403.63;;;-7.75;100.00
41264;BME280;26998;48.714;9.414;2022-12-13T02:23:33;98386.31;;;-7.74;100.00
41264;BME280;26998;48.714;9.414;2022-12-13T02:28:54;98379.78;;;-7.53;100.00
41264;BME280;26998;48.714;9.414;2022-12-13T02:31:39;98383.66;;;-7.46;100.00
41264;BME280;26998;48.714;9.414;2022-12-13T02:34:18;98377.44;;;-7.43;100.00
41264;BME280;26998;48.714;9.414;2022-12-13T02:37:23;98374.72;;;-7.41;100.00
41264;BME280;26998;48.714;9.414;2022-12-13T02:40:09;98363.44;;;-7.40;100.00
41264;BME280;26998;48.714;9.414;2022-12-13T02:42:57;98349.66;;;-7.28;100.00
41264;BME280;26998;48.714;9.414;2022-12-13T02:45:30;98338.84;;;-7.35;100.00
41264;BME280;26998;48.714;9.414;2022-12-13T02:48:01;98333.53;;;-7.33;100.00
41264;BME280;26998;48.714;9.414;2022-12-13T02:50:31;98323.06;;;-7.32;100.00
41264;BME280;26998;48.714;9.414;2022-12-13T02:52:58;98320.78;;;-7.24;100.00
41264;BME280;26998;48.714;9.414;2022-12-13T02:55:25;98318.00;;;-7.21;100.00
41264;BME280;26998;48.714;9.414;2022-12-13T02:57:54;98320.66;;;-6.95;100.00
41264;BME280;26998;48.714;9.414;2022-12-13T03:00:26;98296.34;;;-6.94;100.00
41264;BME280;26998;48.714;9.414;2022-12-13T03:11:16;98252.69;;;-7.02;100.00
41264;BME280;26998;48.714;9.414;2022-12-13T03:13:59;98236.91;;;-6.99;100.00
41264;BME280;26998;48.714;9.414;2022-12-13T03:16:32;98227.03;;;-7.06;100.00
41264;BME280;26998;48.714;9.414;2022-12-13T03:19:02;98228.19;;;-6.98;100.00
41264;BME280;26998;48.714;9.414;2022-12-13T03:21:46;98206.66;;;-6.74;100.00
41264;BME280;26998;48.714;9.414;2022-12-13T03:24:18;98174.09;;;-6.67;100.00
41264;BME280;26998;48.714;9.414;2022-12-13T03:26:47;98150.00;;;-6.32;100.00
41264;BME280;26998;48.714;9.414;2022-12-13T03:29:15;98122.00;;;-6.29;100.00
41264;BME280;26998;48.714;9.414;2022-12-13T03:31:50;98113.88;;;-6.24;100.00
41264;BME280;26998;48.714;9.414;2022-12-13T03:34:17;98102.75;;;-6.26;100.00
41264;BME280;26998;48.714;9.414;2022-12-13T03:36:50;98104.66;;;-6.17;100.00
41264;BME280;26998;48.714;9.414;2022-12-13T03:39:17;98091.66;;;-6.17;100.00
41264;BME280;26998;48.714;9.414;2022-12-13T03:41:45;98084.88;;;-6.07;100.00
41264;BME280;26998;48.714;9.414;2022-12-13T03:44:12;98085.09;;;-6.10;100.00
41264;BME280;26998;48.714;9.414;2022-12-13T03:46:38;98083.63;;;-6.14;100.00
41264;BME280;26998;48.714;9.414;2022-12-13T03:49:05;98079.44;;;-6.03;100.00
41264;BME280;26998;48.714;9.414;2022-12-13T03:51:31;98077.28;;;-6.10;100.00
41264;BME280;26998;48.714;9.414;2022-12-13T03:53:57;98070.03;;;-6.17;100.00
41264;BME280;26998;48.714;9.414;2022-12-13T03:56:24;98070.75;;;-6.15;100.00
41264;BME280;26998;48.714;9.414;2022-12-13T03:58:51;98064.28;;;-6.10;100.00
41264;BME280;26998;48.714;9.414;2022-12-13T04:01:17;98067.13;;;-6.01;100.00
41264;BME280;26998;48.714;9.414;2022-12-13T04:03:45;98058.88;;;-5.95;100.00
41264;BME280;26998;48.714;9.414;2022-12-13T04:06:13;98063.25;;;-5.96;100.00
41264;BME280;26998;48.714;9.414;2022-12-13T04:08:49;98055.59;;;-5.75;100.00
41264;BME280;26998;48.714;9.414;2022-12-13T04:11:16;98054.53;;;-5.95;100.00
41264;BME280;26998;48.714;9.414;2022-12-13T04:13:43;98045.50;;;-6.02;100.00
41264;BME280;26998;48.714;9.414;2022-12-13T04:16:09;98045.88;;;-5.95;100.00
41264;BME280;26998;48.714;9.414;2022-12-13T04:18:35;98037.47;;;-5.88;100.00
41264;BME280;26998;48.714;9.414;2022-12-13T04:21:02;98039.25;;;-5.88;100.00
41264;BME280;26998;48.714;9.414;2022-12-13T04:23:29;98036.19;;;-5.82;100.00
41264;BME280;26998;48.714;9.414;2022-12-13T04:25:55;98044.69;;;-5.91;100.00
41264;BME280;26998;48.714;9.414;2022-12-13T04:28:22;98037.00;;;-5.93;100.00
41264;BME280;26998;48.714;9.414;2022-12-13T04:30:49;98032.75;;;-5.71;100.00
41264;BME280;26998;48.714;9.414;2022-12-13T04:33:22;98024.91;;;-5.83;100.00
41264;BME280;26998;48.714;9.414;2022-12-13T04:35:49;98030.00;;;-5.92;100.00
41264;BME280;26998;48.714;9.414;2022-12-13T04:38:16;98034.03;;;-5.99;100.00
41264;BME280;26998;48.714;9.414;2022-12-13T04:40:42;98030.34;;;-5.86;100.00
41264;BME280;26998;48.714;9.414;2022-12-13T04:43:09;98035.22;;;-5.81;100.00
41264;BME280;26998;48.714;9.414;2022-12-13T04:45:36;98025.41;;;-5.89;100.00
41264;BME280;26998;48.714;9.414;2022-12-13T04:48:02;98026.13;;;-5.98;100.00
41264;BME280;26998;48.714;9.414;2022-12-13T04:50:29;98033.44;;;-6.03;100.00
41264;BME280;26998;48.714;9.414;2022-12-13T04:52:55;98035.53;;;-6.08;100.00
41264;BME280;26998;48.714;9.414;2022-12-13T04:55:22;98040.88;;;-6.10;100.00
41264;BME280;26998;48.714;9.414;2022-12-13T04:57:48;98035.78;;;-6.11;100.00
41264;BME280;26998;48.714;9.414;2022-12-13T05:00:15;98032.13;;;-6.09;100.00
41264;BME280;26998;48.714;9.414;2022-12-13T05:02:42;98035.22;;;-6.03;100.00
41264;BME280;26998;48.714;9.414;2022-12-13T05:05:08;98026.41;;;-6.14;100.00
41264;BME280;26998;48.714;9.414;2022-12-13T05:07:36;98031.63;;;-6.14;100.00
41264;BME280;26998;48.714;9.414;2022-12-13T05:10:09;98032.13;;;-6.09;100.00
41264;BME280;26998;48.714;9.414;2022-12-13T05:12:35;98025.50;;;-6.01;100.00
41264;BME280;26998;48.714;9.414;2022-12-13T05:15:02;98010.84;;;-5.91;100.00
41264;BME280;26998;48.714;9.414;2022-12-13T05:17:28;98009.94;;;-5.79;100.00
41264;BME280;26998;48.714;9.414;2022-12-13T05:19:55;98013.00;;;-5.74;100.00
41264;BME280;26998;48.714;9.414;2022-12-13T05:22:21;98005.41;;;-5.77;100.00
41264;BME280;26998;48.714;9.414;2022-12-13T05:24:48;98005.06;;;-5.84;100.00
41264;BME280;26998;48.714;9.414;2022-12-13T05:27:15;98004.81;;;-5.81;100.00
41264;BME280;26998;48.714;9.414;2022-12-13T05:29:54;98001.16;;;-5.78;100.00
41264;BME280;26998;48.714;9.414;2022-12-13T05:32:36;98000.13;;;-5.98;100.00
41264;BME280;26998;48.714;9.414;2022-12-13T05:35:14;97997.97;;;-5.82;100.00
41264;BME280;26998;48.714;9.414;2022-12-13T05:37:50;98000.22;;;-5.88;100.00
41264;BME280;26998;48.714;9.414;2022-12-13T05:40:20;97997.63;;;-5.99;100.00
41264;BME280;26998;48.714;9.414;2022-12-13T05:42:47;97999.50;;;-5.90;100.00
41264;BME280;26998;48.714;9.414;2022-12-13T05:45:15;97993.81;;;-5.95;100.00
41264;BME280;26998;48.714;9.414;2022-12-13T05:47:42;97995.50;;;-5.94;100.00
41264;BME280;26998;48.714;9.414;2022-12-13T05:50:13;97993.81;;;-5.95;100.00
41264;BME280;26998;48.714;9.414;2022-12-13T05:52:40;97987.22;;;-5.99;100.00
41264;BME280;26998;48.714;9.414;2022-12-13T05:55:07;97983.31;;;-5.94;100.00
41264;BME280;26998;48.714;9.414;2022-12-13T05:57:34;97981.78;;;-5.85;100.00
41264;BME280;26998;48.714;9.414;2022-12-13T06:00:02;97977.63;;;-5.88;100.00
41264;BME280;26998;48.714;9.414;2022-12-13T06:02:29;97980.44;;;-5.91;100.00
41264;BME280;26998;48.714;9.414;2022-12-13T06:04:56;97986.97;;;-5.74;100.00
41264;BME280;26998;48.714;9.414;2022-12-13T06:07:22;97979.63;;;-5.80;100.00
41264;BME280;26998;48.714;9.414;2022-12-13T06:09:48;97971.81;;;-5.91;100.00
41264;BME280;26998;48.714;9.414;2022-12-13T06:12:15;97986.38;;;-6.00;100.00
41264;BME280;26998;48.714;9.414;2022-12-13T06:14:58;97982.81;;;-5.99;100.00
41264;BME280;26998;48.714;9.414;2022-12-13T06:17:44;97984.34;;;-6.08;100.00
41264;BME280;26998;48.714;9.414;2022-12-13T06:20:11;97982.97;;;-6.00;100.00
41264;BME280;26998;48.714;9.414;2022-12-13T06:22:51;97982.72;;;-5.97;100.00
41264;BME280;26998;48.714;9.414;2022-12-13T06:25:18;97988.13;;;-5.89;100.00
41264;BME280;26998;48.714;9.414;2022-12-13T06:28:00;97989.09;;;-5.79;100.00
41264;BME280;26998;48.714;9.414;2022-12-13T06:30:29;97989.56;;;-5.85;100.00
41264;BME280;26998;48.714;9.414;2022-12-13T06:32:56;97991.34;;;-5.97;100.00
41264;BME280;26998;48.714;9.414;2022-12-13T06:35:22;97987.22;;;-5.99;100.00
41264;BME280;26998;48.714;9.414;2022-12-13T06:37:55;97977.63;;;-5.99;100.00
41264;BME280;26998;48.714;9.414;2022-12-13T06:40:27;97978.56;;;-6.00;100.00
41264;BME280;26998;48.714;9.414;2022-12-13T06:42:53;97972.09;;;-5.94;100.00
41264;BME280;26998;48.714;9.414;2022-12-13T06:45:19;97971.72;;;-6.01;100.00
41264;BME280;26998;48.714;9.414;2022-12-13T06:47:46;97971.81;;;-6.02;100.00
41264;BME280;26998;48.714;9.414;2022-12-13T06:50:12;97973.59;;;-5.92;100.00
41264;BME280;26998;48.714;9.414;2022-12-13T06:52:39;97972.56;;;-6.00;100.00
41264;BME280;26998;48.714;9.414;2022-12-13T06:55:06;97979.53;;;-6.01;100.00
41264;BME280;26998;48.714;9.414;2022-12-13T06:57:32;97982.00;;;-5.99;100.00
41264;BME280;26998;48.714;9.414;2022-12-13T06:59:59;97986.84;;;-6.06;100.00
41264;BME280;26998;48.714;9.414;2022-12-13T07:02:28;97994.50;;;-6.16;100.00
41264;BME280;26998;48.714;9.414;2022-12-13T07:04:55;97996.50;;;-6.19;100.00
41264;BME280;26998;48.714;9.414;2022-12-13T07:07:23;97999.94;;;-6.19;100.00
41264;BME280;26998;48.714;9.414;2022-12-13T07:09:50;98000.03;;;-6.20;100.00
41264;BME280;26998;48.714;9.414;2022-12-13T07:12:17;98001.13;;;-6.12;100.00
41264;BME280;26998;48.714;9.414;2022-12-13T07:14:43;98003.03;;;-6.02;100.00
41264;BME280;26998;48.714;9.414;2022-12-13T07:17:10;97987.81;;;-5.96;100.00
41264;BME280;26998;48.714;9.414;2022-12-13T07:19:36;97995.38;;;-5.93;100.00
41264;BME280;26998;48.714;9.414;2022-12-13T07:22:03;97995.97;;;-6.00;100.00
41264;BME280;26998;48.714;9.414;2022-12-13T07:24:30;98003.97;;;-5.92;100.00
41264;BME280;26998;48.714;9.414;2022-12-13T07:26:56;97994.06;;;-5.87;100.00
41264;BME280;26998;48.714;9.414;2022-12-13T07:29:23;97993.97;;;-5.97;100.00
41264;BME280;26998;48.714;9.414;2022-12-13T07:31:50;98002.59;;;-5.96;100.00
41264;BME280;26998;48.714;9.414;2022-12-13T07:34:16;98004.38;;;-5.97;100.00
41264;BME280;26998;48.714;9.414;2022-12-13T07:36:42;97997.16;;;-5.93;100.00
41264;BME280;26998;48.714;9.414;2022-12-13T07:39:09;97997.25;;;-5.84;100.00
41264;BME280;26998;48.714;9.414;2022-12-13T07:41:35;97999.66;;;-5.69;100.00
41264;BME280;26998;48.714;9.414;2022-12-13T07:44:02;98007.31;;;-5.79;100.00
41264;BME280;26998;48.714;9.414;2022-12-13T07:46:28;98000.22;;;-5.88;100.00
41264;BME280;26998;48.714;9.414;2022-12-13T07:49:02;98006.47;;;-5.91;100.00
41264;BME280;26998;48.714;9.414;2022-12-13T07:51:31;98009.91;;;-5.90;100.00
41264;BME280;26998;48.714;9.414;2022-12-13T07:53:57;98014.16;;;-5.89;100.00
41264;BME280;26998;48.714;9.414;2022-12-13T07:56:24;98019.38;;;-5.78;100.00
41264;BME280;26998;48.714;9.414;2022-12-13T07:58:51;98023.03;;;-5.81;100.00
41264;BME280;26998;48.714;9.414;2022-12-13T08:01:17;98027.69;;;-5.62;100.00
41264;BME280;26998;48.714;9.414;2022-12-13T08:03:46;98028.50;;;-5.72;100.00
41264;BME280;26998;48.714;9.414;2022-12-13T08:06:13;98024.34;;;-5.75;100.00
41264;BME280;26998;48.714;9.414;2022-12-13T08:08:40;98022.56;;;-5.74;100.00
41264;BME280;26998;48.714;9.414;2022-12-13T08:11:11;98027.22;;;-5.55;100.00
41264;BME280;26998;48.714;9.414;2022-12-13T08:13:38;98027.34;;;-5.57;100.00
41264;BME280;26998;48.714;9.414;2022-12-13T08:16:07;98032.22;;;-5.41;100.00
41264;BME280;26998;48.714;9.414;2022-12-13T08:18:54;98035.50;;;-5.50;100.00
41264;BME280;26998;48.714;9.414;2022-12-13T08:21:39;98036.94;;;-5.46;100.00
41264;BME280;26998;48.714;9.414;2022-12-13T08:24:25;98037.06;;;-5.48;100.00
41264;BME280;26998;48.714;9.414;2022-12-13T08:26:57;98040.94;;;-5.53;100.00
41264;BME280;26998;48.714;9.414;2022-12-13T08:29:24;98033.72;;;-5.61;100.00
41264;BME280;26998;48.714;9.414;2022-12-13T08:32:02;98032.69;;;-5.47;100.00
41264;BME280;26998;48.714;9.414;2022-12-13T08:34:29;98026.75;;;-5.27;100.00
41264;BME280;26998;48.714;9.414;2022-12-13T08:36:55;98022.72;;;-5.20;100.00
41264;BME280;26998;48.714;9.414;2022-12-13T08:39:30;98029.47;;;-5.17;100.00
41264;BME280;26998;48.714;9.414;2022-12-13T08:42:01;98030.41;;;-5.18;100.00
41264;BME280;26998;48.714;9.414;2022-12-13T08:44:42;98031.97;;;-5.16;100.00
41264;BME280;26998;48.714;9.414;2022-12-13T08:47:09;98035.16;;;-5.01;100.00
41264;BME280;26998;48.714;9.414;2022-12-13T08:49:35;98034.91;;;-5.20;100.00
41264;BME280;26998;48.714;9.414;2022-12-13T08:52:02;98026.03;;;-5.06;100.00
41264;BME280;26998;48.714;9.414;2022-12-13T08:54:32;98035.94;;;-4.78;100.00
41264;BME280;26998;48.714;9.414;2022-12-13T08:56:58;98035.78;;;-4.65;100.00
41264;BME280;26998;48.714;9.414;2022-12-13T08:59:25;98034.63;;;-4.72;100.00
41264;BME280;26998;48.714;9.414;2022-12-13T09:01:51;98039.34;;;-4.77;100.00
41264;BME280;26998;48.714;9.414;2022-12-13T09:04:19;98044.41;;;-4.65;100.00
41264;BME280;26998;48.714;9.414;2022-12-13T09:06:57;98036.06;;;-4.79;100.00
41264;BME280;26998;48.714;9.414;2022-12-13T09:09:27;98030.06;;;-4.48;100.00
41264;BME280;26998;48.714;9.414;2022-12-13T09:11:55;98026.88;;;-4.30;100.00
41264;BME280;26998;48.714;9.414;2022-12-13T09:14:25;98024.84;;;-3.95;100.00
41264;BME280;26998;48.714;9.414;2022-12-13T09:17:00;98014.34;;;-3.53;100.00
41264;BME280;26998;48.714;9.414;2022-12-13T09:19:29;98015.84;;;-3.81;100.00
41264;BME280;26998;48.714;9.414;2022-12-13T09:22:03;98009.00;;;-3.51;100.00
41264;BME280;26998;48.714;9.414;2022-12-13T09:24:30;98004.03;;;-3.54;100.00
41264;BME280;26998;48.714;9.414;2022-12-13T09:27:05;98007.44;;;-3.84;100.00
41264;BME280;26998;48.714;9.414;2022-12-13T09:29:36;98000.94;;;-3.90;100.00
41264;BME280;26998;48.714;9.414;2022-12-13T09:32:02;98005.66;;;-3.63;100.00
41264;BME280;26998;48.714;9.414;2022-12-13T09:34:29;98005.53;;;-3.61;100.00
41264;BME280;26998;48.714;9.414;2022-12-13T09:36:56;98003.91;;;-3.53;100.00
41264;BME280;26998;48.714;9.414;2022-12-13T09:39:27;98011.16;;;-3.56;100.00
41264;BME280;26998;48.714;9.414;2022-12-13T09:41:56;97999.75;;;-3.25;100.00
41264;BME280;26998;48.714;9.414;2022-12-13T09:44:30;97997.94;;;-3.34;100.00
41264;BME280;26998;48.714;9.414;2022-12-13T09:49:51;98003.19;;;-3.24;100.00
41264;BME280;26998;48.714;9.414;2022-12-13T09:52:22;98010.22;;;-3.25;100.00
41264;BME280;26998;48.714;9.414;2022-12-13T09:54:54;98008.84;;;-2.79;100.00
41264;BME280;26998;48.714;9.414;2022-12-13T09:57:28;98020.41;;;-2.71;100.00
41264;BME280;26998;48.714;9.414;2022-12-13T09:59:57;98016.09;;;-3.02;100.00
41264;BME280;26998;48.714;9.414;2022-12-13T10:02:28;98001.06;;;-2.99;100.00
41264;BME280;26998;48.714;9.414;2022-12-13T10:08:13;97998.66;;;-2.72;100.00
41264;BME280;26998;48.714;9.414;2022-12-13T10:10:41;98000.28;;;-2.81;100.00
41264;BME280;26998;48.714;9.414;2022-12-13T10:16:13;97995.19;;;-2.92;100.00
41264;BME280;26998;48.714;9.414;2022-12-13T10:18:49;97988.16;;;-2.91;100.00
41264;BME280;26998;48.714;9.414;2022-12-13T10:21:23;97991.09;;;-2.56;100.00
41264;BME280;26998;48.714;9.414;2022-12-13T10:23:50;97980.66;;;-2.46;100.00
41264;BME280;26998;48.714;9.414;2022-12-13T10:26:37;97989.31;;;-2.65;100.00
41264;BME280;26998;48.714;9.414;2022-12-13T10:29:05;97977.34;;;-2.67;100.00
41264;BME280;26998;48.714;9.414;2022-12-13T10:31:44;97976.38;;;-2.47;100.00
41264;BME280;26998;48.714;9.414;2022-12-13T10:34:29;97971.69;;;-2.24;98.47
41264;BME280;26998;48.714;9.414;2022-12-13T10:39:48;97977.75;;;-2.23;98.98
41264;BME280;26998;48.714;9.414;2022-12-13T10:42:19;97968.66;;;-2.19;95.53
41264;BME280;26998;48.714;9.414;2022-12-13T10:45:13;97971.53;;;-2.03;92.24
41264;BME280;26998;48.714;9.414;2022-12-13T10:47:49;97972.38;;;-2.32;95.91
41264;BME280;26998;48.714;9.414;2022-12-13T10:50:24;97970.31;;;-2.47;97.47
41264;BME280;26998;48.714;9.414;2022-12-13T10:52:53;97973.91;;;-2.58;97.05
41264;BME280;26998;48.714;9.414;2022-12-13T10:55:34;97969.75;;;-2.22;97.16
41264;BME280;26998;48.714;9.414;2022-12-13T10:58:03;97967.13;;;-2.12;97.87
41264;BME280;26998;48.714;9.414;2022-12-13T11:03:00;97957.09;;;-2.17;96.26
41264;BME280;26998;48.714;9.414;2022-12-13T11:05:32;97966.59;;;-2.35;94.67
41264;BME280;26998;48.714;9.414;2022-12-13T11:08:31;97964.22;;;-2.09;93.93
41264;BME280;26998;48.714;9.414;2022-12-13T11:11:00;97958.34;;;-2.30;93.72
41264;BME280;26998;48.714;9.414;2022-12-13T11:13:32;97953.47;;;-1.59;91.77
41264;BME280;26998;48.714;9.414;2022-12-13T11:16:00;97958.78;;;-1.78;90.93
41264;BME280;26998;48.714;9.414;2022-12-13T11:18:33;97963.66;;;-1.83;92.86
41264;BME280;26998;48.714;9.414;2022-12-13T11:21:02;97965.63;;;-2.05;91.50
41264;BME280;26998;48.714;9.414;2022-12-13T11:23:33;97954.94;;;-1.84;90.60
41264;BME280;26998;48.714;9.414;2022-12-13T11:26:09;97957.63;;;-1.56;89.10
41264;BME280;26998;48.714;9.414;2022-12-13T11:28:48;97954.38;;;-1.68;89.89
41264;BME280;26998;48.714;9.414;2022-12-13T11:31:27;97946.13;;;-1.83;91.07
41264;BME280;26998;48.714;9.414;2022-12-13T11:34:23;97942.91;;;-1.67;88.94
41264;BME280;26998;48.714;9.414;2022-12-13T11:39:42;97942.53;;;-1.82;88.25
41264;BME280;26998;48.714;9.414;2022-12-13T11:42:26;97933.72;;;-1.91;89.66
41264;BME280;26998;48.714;9.414;2022-12-13T11:47:57;97908.75;;;-1.48;87.02
41264;BME280;26998;48.714;9.414;2022-12-13T11:50:39;97916.34;;;-1.45;86.57
41264;BME280;26998;48.714;9.414;2022-12-13T11:56:40;97917.03;;;-1.43;83.32
41264;BME280;26998;48.714;9.414;2022-12-13T11:59:33;97915.16;;;-1.60;82.35
41264;BME280;26998;48.714;9.414;2022-12-13T12:02:29;97924.00;;;-1.61;83.40
41264;BME280;26998;48.714;9.414;2022-12-13T12:05:03;97932.25;;;-1.56;83.32
41264;BME280;26998;48.714;9.414;2022-12-13T12:07:45;97924.69;;;-1.69;82.18
41264;BME280;26998;48.714;9.414;2022-12-13T12:10:39;97928.72;;;-1.65;83.04
41264;BME280;26998;48.714;9.414;2022-12-13T12:13:19;97924.72;;;-1.13;79.18
41264;BME280;26998;48.714;9.414;2022-12-13T12:16:13;97922.31;;;-1.52;79.16
41264;BME280;26998;48.714;9.414;2022-12-13T12:18:46;97916.59;;;-1.75;81.22
41264;BME280;26998;48.714;9.414;2022-12-13T12:27:36;97918.19;;;-1.27;77.76
41264;BME280;26998;48.714;9.414;2022-12-13T12:30:20;97916.97;;;-1.60;79.10
41264;BME280;26998;48.714;9.414;2022-12-13T12:33:14;97924.66;;;-1.49;77.40
41264;BME280;26998;48.714;9.414;2022-12-13T12:36:13;97914.41;;;-1.43;75.97
41264;BME280;26998;48.714;9.414;2022-12-13T12:50:56;97904.91;;;-0.80;70.36
41264;BME280;26998;48.714;9.414;2022-12-13T12:53:58;97906.31;;;-1.04;70.84
41264;BME280;26998;48.714;9.414;2022-12-13T12:56:43;97900.72;;;-1.09;71.71
41264;BME280;26998;48.714;9.414;2022-12-13T13:02:18;97901.13;;;-1.13;73.54
41264;BME280;26998;48.714;9.414;2022-12-13T13:04:51;97897.13;;;-1.35;76.04
41264;BME280;26998;48.714;9.414;2022-12-13T13:07:28;97893.56;;;-1.17;75.97
41264;BME280;26998;48.714;9.414;2022-12-13T13:10:05;97900.31;;;-1.42;73.13
41264;BME280;26998;48.714;9.414;2022-12-13T13:12:53;97890.88;;;-1.52;76.22
41264;BME280;26998;48.714;9.414;2022-12-13T13:26:28;97878.47;;;-1.32;74.72
41264;BME280;26998;48.714;9.414;2022-12-13T13:34:43;97874.34;;;-0.89;68.15
41264;BME280;26998;48.714;9.414;2022-12-13T13:42:23;97864.16;;;-0.93;71.82
41264;BME280;26998;48.714;9.414;2022-12-13T13:58:39;97872.06;;;-1.48;76.71
41264;BME280;26998;48.714;9.414;2022-12-13T14:01:36;97871.94;;;-1.46;76.87
41264;BME280;26998;48.714;9.414;2022-12-13T14:04:45;97862.06;;;-1.52;77.87
41264;BME280;26998;48.714;9.414;2022-12-13T14:15:22;97872.34;;;-1.23;75.15
41264;BME280;26998;48.714;9.414;2022-12-13T14:29:22;97875.56;;;-1.29;76.29
41264;BME280;26998;48.714;9.414;2022-12-13T14:31:49;97877.41;;;-1.12;74.83
41264;BME280;26998;48.714;9.414;2022-12-13T14:34:21;97880.22;;;-1.51;76.93
41264;BME280;26998;48.714;9.414;2022-12-13T14:36:59;97871.72;;;-1.63;78.73
41264;BME280;26998;48.714;9.414;2022-12-13T14:39:27;97857.97;;;-1.65;81.11
41264;BME280;26998;48.714;9.414;2022-12-13T14:41:58;97871.50;;;-1.69;81.53
41264;BME280;26998;48.714;9.414;2022-12-13T14:44:30;97870.31;;;-1.57;80.70
41264;BME280;26998;48.714;9.414;2022-12-13T14:46:59;97869.03;;;-1.71;83.81
41264;BME280;26998;48.714;9.414;2022-12-13T14:49:28;97870.56;;;-1.78;85.88
41264;BME280;26998;48.714;9.414;2022-12-13T14:51:59;97871.13;;;-1.84;86.28
41264;BME280;26998;48.714;9.414;2022-12-13T14:54:37;97867.16;;;-1.88;87.76
41264;BME280;26998;48.714;9.414;2022-12-13T14:57:14;97873.91;;;-1.86;87.74
41264;BME280;26998;48.714;9.414;2022-12-13T14:59:49;97868.41;;;-1.92;87.55
41264;BME280;26998;48.714;9.414;2022-12-13T15:02:20;97861.50;;;-1.93;89.50
41264;BME280;26998;48.714;9.414;2022-12-13T15:05:00;97858.00;;;-2.02;91.22
41264;BME280;26998;48.714;9.414;2022-12-13T15:07:39;97862.13;;;-2.09;91.71
41264;BME280;26998;48.714;9.414;2022-12-13T15:10:19;97857.56;;;-2.07;91.85
41264;BME280;26998;48.714;9.414;2022-12-13T15:12:47;97854.31;;;-2.19;91.55
41264;BME280;26998;48.714;9.414;2022-12-13T15:15:26;97855.41;;;-2.21;91.81